Time;durP1;ratioP1;P1;durP2;ratioP2;P2;SDS_P1;SDS_P2;PMS_P1;PMS_P2;Temp;Humidity;BMP_temperature;BMP_pressure;BME280_temperature;BME280_humidity;BME280_pressure;Samples;Min_cycle;Max_cycle;Signal;HPM_P1;HPM_P2
2021/04/30 00:00:40;;;;;;;12.38;6.03;;;8.20;99.90;;;;;;5062943;28;20124;-70
2021/04/30 00:03:06;;;;;;;11.15;5.93;;;8.10;99.90;;;;;;5064639;28;20099;-69
2021/04/30 00:05:32;;;;;;;14.80;6.63;;;8.20;99.90;;;;;;5064321;28;20031;-68
2021/04/30 00:07:59;;;;;;;16.50;6.32;;;8.10;99.90;;;;;;5061938;28;20026;-69
2021/04/30 00:10:27;;;;;;;14.93;6.82;;;8.20;99.90;;;;;;5063595;28;20032;-69
2021/04/30 00:12:53;;;;;;;11.93;6.50;;;8.10;99.90;;;;;;5064797;28;20025;-69
2021/04/30 00:15:19;;;;;;;12.10;5.93;;;8.10;99.90;;;;;;5060884;28;20093;-69
2021/04/30 00:17:45;;;;;;;9.27;6.57;;;8.00;99.90;;;;;;5065144;28;20028;-69
2021/04/30 00:20:12;;;;;;;13.55;7.05;;;8.10;99.90;;;;;;5055154;28;20051;-69
2021/04/30 00:22:38;;;;;;;11.38;6.13;;;8.00;99.90;;;;;;5066250;28;20040;-69
2021/04/30 00:25:04;;;;;;;8.52;5.90;;;8.00;99.90;;;;;;5066109;28;20029;-69
2021/04/30 00:27:30;;;;;;;11.63;6.00;;;8.10;99.90;;;;;;5064421;28;20030;-69
2021/04/30 00:29:55;;;;;;;11.65;6.72;;;8.00;99.90;;;;;;5062499;28;20108;-69
2021/04/30 00:32:21;;;;;;;10.23;6.25;;;8.00;99.90;;;;;;5067436;28;20388;-69
2021/04/30 00:34:47;;;;;;;10.98;6.45;;;7.90;99.90;;;;;;5048458;28;20116;-69
2021/04/30 00:37:13;;;;;;;13.65;7.20;;;8.00;99.90;;;;;;5072341;28;20031;-69
2021/04/30 00:39:38;;;;;;;13.45;6.43;;;8.00;99.90;;;;;;5070131;28;20029;-70
2021/04/30 00:42:05;;;;;;;15.65;7.65;;;8.10;99.90;;;;;;5060954;28;20028;-69
2021/04/30 00:44:30;;;;;;;17.58;7.85;;;8.00;99.90;;;;;;5066254;28;20024;-69
2021/04/30 00:46:56;;;;;;;13.95;7.53;;;8.10;99.90;;;;;;5071537;28;20388;-69
2021/04/30 00:49:22;;;;;;;16.73;7.57;;;8.10;99.90;;;;;;5062636;28;20063;-69
2021/04/30 00:51:48;;;;;;;22.30;8.05;;;8.00;99.90;;;;;;5081772;28;20027;-69
2021/04/30 00:54:13;;;;;;;16.08;7.60;;;8.00;99.90;;;;;;5068840;28;20035;-69
2021/04/30 00:56:39;;;;;;;21.00;7.63;;;8.10;99.90;;;;;;5064041;28;20025;-69
2021/04/30 00:59:06;;;;;;;17.52;8.77;;;8.00;99.90;;;;;;5061877;28;20025;-70
2021/04/30 01:01:32;;;;;;;12.43;7.88;;;8.00;99.90;;;;;;5068769;28;20362;-69
2021/04/30 01:03:58;;;;;;;16.70;8.25;;;7.90;99.90;;;;;;5061742;28;20118;-69
2021/04/30 01:06:23;;;;;;;20.08;7.90;;;7.90;99.90;;;;;;5068750;28;20079;-69
2021/04/30 01:08:49;;;;;;;12.73;8.05;;;7.90;99.90;;;;;;5069064;28;20522;-69
2021/04/30 01:11:15;;;;;;;16.23;9.73;;;7.90;99.90;;;;;;5060878;28;20421;-69
2021/04/30 01:13:41;;;;;;;17.58;9.40;;;7.90;99.90;;;;;;5059455;28;20021;-69
2021/04/30 01:16:07;;;;;;;14.15;8.40;;;7.90;99.90;;;;;;5064312;28;20167;-70
2021/04/30 01:18:43;;;;;;;16.15;8.00;;;8.00;99.90;;;;;;5068019;28;20016;-69
2021/04/30 01:21:10;;;;;;;16.35;7.85;;;8.10;99.90;;;;;;5070189;28;20041;-69
2021/04/30 01:23:53;;;;;;;20.08;8.85;;;8.20;99.90;;;;;;5052669;28;20028;-69
2021/04/30 01:26:19;;;;;;;;;;;8.00;99.90;;;;;;5048673;28;20040;-69
2021/04/30 01:28:46;;;;;;;17.75;8.93;;;8.00;99.90;;;;;;5070301;28;19913;-69
2021/04/30 01:31:13;;;;;;;19.67;9.00;;;8.00;99.90;;;;;;5054956;28;20035;-69
2021/04/30 01:33:39;;;;;;;18.73;9.77;;;8.10;99.90;;;;;;5063607;28;20422;-69
2021/04/30 01:36:05;;;;;;;16.80;9.98;;;8.00;99.90;;;;;;5069139;28;20137;-69
2021/04/30 01:38:31;;;;;;;15.52;10.38;;;8.10;99.90;;;;;;5058226;28;20029;-69
2021/04/30 01:40:57;;;;;;;21.17;11.50;;;8.10;99.90;;;;;;5069558;28;20485;-69
2021/04/30 01:43:25;;;;;;;19.48;10.23;;;8.10;99.90;;;;;;5069623;28;20021;-69
2021/04/30 01:45:56;;;;;;;24.08;11.93;;;8.00;99.90;;;;;;5067772;28;20036;-69
2021/04/30 01:48:29;;;;;;;18.77;11.80;;;8.10;99.90;;;;;;5055371;28;20028;-69
2021/04/30 01:50:56;;;;;;;22.88;12.45;;;8.20;99.90;;;;;;5063812;28;20036;-69
2021/04/30 01:53:24;;;;;;;20.92;13.20;;;8.20;99.90;;;;;;5065578;28;20961;-70
2021/04/30 01:55:54;;;;;;;25.00;13.52;;;8.10;99.90;;;;;;5064729;28;20040;-69
2021/04/30 01:58:20;;;;;;;21.52;12.57;;;8.10;99.90;;;;;;5065155;28;20028;-69
2021/04/30 02:00:46;;;;;;;20.25;13.15;;;8.10;99.90;;;;;;5061828;28;20498;-70
2021/04/30 02:03:12;;;;;;;24.00;14.27;;;8.20;99.90;;;;;;5071555;28;20020;-69
2021/04/30 02:05:40;;;;;;;25.08;13.50;;;8.30;99.90;;;;;;5057046;28;20028;-69
2021/04/30 02:08:08;;;;;;;29.30;14.43;;;8.30;99.90;;;;;;5065079;28;20075;-69
2021/04/30 02:10:34;;;;;;;23.58;13.23;;;8.30;99.90;;;;;;5059159;28;20552;-69
2021/04/30 02:13:00;;;;;;;21.27;14.55;;;8.20;99.90;;;;;;5061118;28;20102;-69
2021/04/30 02:15:31;;;;;;;23.25;14.07;;;8.20;99.90;;;;;;5074695;28;20113;-69
2021/04/30 02:17:57;;;;;;;28.20;15.57;;;8.20;99.90;;;;;;5063766;28;20108;-69
2021/04/30 02:20:23;;;;;;;27.10;15.13;;;8.30;99.90;;;;;;5059166;28;20592;-70
2021/04/30 02:22:50;;;;;;;25.45;14.65;;;8.10;99.90;;;;;;5070751;28;20020;-69
2021/04/30 02:25:17;;;;;;;22.65;16.55;;;8.00;99.90;;;;;;5060764;28;20098;-69
2021/04/30 02:27:43;;;;;;;24.45;15.98;;;8.00;99.90;;;;;;5063818;28;20025;-69
2021/04/30 02:30:12;;;;;;;27.70;14.52;;;8.00;99.90;;;;;;5068424;28;20025;-69
2021/04/30 02:32:38;;;;;;;22.52;15.75;;;8.00;99.90;;;;;;5056555;28;20021;-69
2021/04/30 02:35:07;;;;;;;24.45;16.80;;;8.10;99.90;;;;;;5062202;28;20043;-69
2021/04/30 02:37:33;;;;;;;29.98;16.75;;;8.10;99.90;;;;;;5064495;28;20025;-69
2021/04/30 02:39:59;;;;;;;25.33;15.88;;;8.10;99.90;;;;;;5062010;28;20032;-69
2021/04/30 02:42:24;;;;;;;29.48;16.27;;;8.20;99.90;;;;;;5067425;28;20048;-69
2021/04/30 02:44:50;;;;;;;22.58;15.55;;;8.10;99.90;;;;;;5063416;28;20052;-69
2021/04/30 02:47:17;;;;;;;22.52;16.55;;;8.10;99.90;;;;;;5063922;28;20489;-69
2021/04/30 02:49:46;;;;;;;25.60;17.27;;;8.10;99.90;;;;;;5060964;28;20048;-69
2021/04/30 02:52:15;;;;;;;30.85;18.02;;;8.10;99.90;;;;;;5061355;28;20024;-68
2021/04/30 02:54:42;;;;;;;27.00;17.65;;;8.10;99.90;;;;;;5064462;28;20056;-69
2021/04/30 02:57:08;;;;;;;31.02;17.23;;;8.10;99.90;;;;;;5057597;28;20025;-69
2021/04/30 02:59:34;;;;;;;24.48;17.88;;;8.20;99.90;;;;;;5060541;28;20086;-69
2021/04/30 03:01:59;;;;;;;28.48;17.25;;;8.10;99.90;;;;;;5063445;28;20037;-69
2021/04/30 03:04:25;;;;;;;25.75;17.02;;;8.10;99.90;;;;;;5054675;28;20039;-69
2021/04/30 03:06:51;;;;;;;28.13;17.20;;;8.10;99.90;;;;;;5062229;28;20040;-69
2021/04/30 03:09:17;;;;;;;26.13;18.33;;;8.20;99.90;;;;;;5063473;28;20029;-69
2021/04/30 03:11:43;;;;;;;28.35;18.80;;;8.20;99.90;;;;;;5058772;28;20470;-69
2021/04/30 03:14:09;;;;;;;31.08;16.83;;;8.20;99.90;;;;;;5060046;28;20377;-69
2021/04/30 03:16:34;;;;;;;22.85;17.63;;;8.20;99.90;;;;;;5055467;28;20024;-69
2021/04/30 03:19:00;;;;;;;31.55;17.48;;;8.20;99.90;;;;;;5059347;28;20505;-69
2021/04/30 03:21:26;;;;;;;23.50;16.95;;;8.10;99.90;;;;;;5055823;28;20033;-69
2021/04/30 03:23:51;;;;;;;28.65;17.95;;;8.10;99.90;;;;;;5064249;28;20021;-68
2021/04/30 03:26:18;;;;;;;26.67;18.17;;;8.20;99.90;;;;;;5059751;28;20036;-69
2021/04/30 03:28:43;;;;;;;28.30;18.85;;;8.20;99.90;;;;;;5056675;28;20029;-69
2021/04/30 03:31:09;;;;;;;32.13;18.67;;;8.20;99.90;;;;;;5056383;28;20033;-69
2021/04/30 03:33:35;;;;;;;27.50;19.10;;;8.30;99.90;;;;;;5063832;28;20048;-68
2021/04/30 03:36:01;;;;;;;28.08;18.95;;;8.30;99.90;;;;;;5064186;28;20071;-69
2021/04/30 03:38:26;;;;;;;35.05;19.02;;;8.30;99.90;;;;;;5065578;28;20462;-69
2021/04/30 03:40:52;;;;;;;26.50;20.33;;;8.40;99.90;;;;;;5070380;28;20036;-69
2021/04/30 03:43:17;;;;;;;32.70;21.45;;;8.40;99.90;;;;;;5054561;28;20036;-69
2021/04/30 03:45:43;;;;;;;29.00;19.17;;;8.30;99.90;;;;;;5065819;28;20036;-69
2021/04/30 03:48:09;;;;;;;25.80;17.98;;;8.30;99.90;;;;;;5070581;28;20021;-69
2021/04/30 03:50:35;;;;;;;30.20;20.70;;;8.20;99.90;;;;;;5066686;28;20032;-68
2021/04/30 03:53:01;;;;;;;27.48;18.13;;;8.20;99.90;;;;;;5059925;28;20024;-69
2021/04/30 03:55:26;;;;;;;28.38;19.05;;;8.10;99.90;;;;;;5059574;28;20029;-69
2021/04/30 03:57:52;;;;;;;25.05;19.30;;;8.10;99.90;;;;;;5066084;28;20026;-69
2021/04/30 04:00:18;;;;;;;36.20;20.70;;;8.00;99.90;;;;;;5054895;28;20041;-70
2021/04/30 04:02:46;;;;;;;28.73;21.33;;;8.00;99.90;;;;;;5071749;28;20021;-69
2021/04/30 04:05:12;;;;;;;28.67;19.75;;;8.00;99.90;;;;;;5060125;28;20021;-69
2021/04/30 04:07:38;;;;;;;33.60;20.73;;;8.10;99.90;;;;;;5072868;28;20024;-69
2021/04/30 04:10:04;;;;;;;28.13;20.60;;;8.10;99.90;;;;;;5064485;28;20040;-69
2021/04/30 04:12:30;;;;;;;30.95;20.60;;;8.10;99.90;;;;;;5061884;28;20552;-69
2021/04/30 04:14:55;;;;;;;28.95;21.88;;;8.10;99.90;;;;;;5066943;28;20040;-69
2021/04/30 04:17:21;;;;;;;27.05;20.52;;;8.10;99.90;;;;;;5060647;28;20021;-71
2021/04/30 04:19:49;;;;;;;32.13;21.10;;;8.10;99.90;;;;;;5061349;28;20036;-69
2021/04/30 04:22:16;;;;;;;32.58;20.85;;;8.10;99.90;;;;;;5061246;28;20044;-69
2021/04/30 04:24:42;;;;;;;31.15;21.58;;;8.00;99.90;;;;;;5067662;28;20099;-69
2021/04/30 04:27:09;;;;;;;32.67;22.88;;;8.10;99.90;;;;;;5063355;28;20512;-69
2021/04/30 04:29:37;;;;;;;29.13;21.23;;;8.20;99.90;;;;;;5068738;28;20037;-69
2021/04/30 04:32:05;;;;;;;26.38;19.67;;;8.20;99.90;;;;;;5061567;28;20536;-69
2021/04/30 04:34:31;;;;;;;31.23;19.65;;;8.20;99.90;;;;;;5070187;28;20381;-69
2021/04/30 04:36:57;;;;;;;33.47;20.17;;;8.20;99.90;;;;;;5062096;28;20055;-68
2021/04/30 04:39:25;;;;;;;35.08;22.23;;;8.20;99.90;;;;;;5071774;28;20035;-69
2021/04/30 04:41:52;;;;;;;33.25;21.27;;;8.30;99.90;;;;;;5061151;28;20374;-69
2021/04/30 04:44:18;;;;;;;32.30;21.25;;;8.20;99.90;;;;;;5071271;28;20017;-69
2021/04/30 04:46:44;;;;;;;41.25;20.73;;;8.30;99.90;;;;;;5061390;28;20080;-68
2021/04/30 04:49:09;;;;;;;31.38;20.95;;;8.30;99.90;;;;;;5062078;28;20021;-70
2021/04/30 04:51:35;;;;;;;26.92;19.55;;;8.20;99.90;;;;;;5068766;28;20021;-69
2021/04/30 04:54:01;;;;;;;32.92;21.50;;;8.30;99.90;;;;;;5064995;28;20493;-70
2021/04/30 04:56:27;;;;;;;32.08;21.90;;;8.20;99.90;;;;;;5067642;28;20020;-68
2021/04/30 04:58:54;;;;;;;36.88;23.08;;;8.30;99.90;;;;;;5069196;28;20020;-69
2021/04/30 05:01:20;;;;;;;22.75;16.83;;;8.30;99.90;;;;;;5066982;28;20037;-70
2021/04/30 05:03:46;;;;;;;35.50;23.20;;;8.30;99.90;;;;;;5059458;28;20104;-69
2021/04/30 05:06:12;;;;;;;28.98;20.67;;;8.20;99.90;;;;;;5063566;28;20489;-70
2021/04/30 05:08:37;;;;;;;33.80;22.48;;;8.10;99.90;;;;;;5072345;28;20035;-69
2021/04/30 05:11:04;;;;;;;36.92;22.83;;;8.20;99.90;;;;;;5045085;28;20025;-69
2021/04/30 05:13:32;;;;;;;36.85;22.73;;;8.30;99.90;;;;;;5065863;28;20032;-69
2021/04/30 05:15:58;;;;;;;32.35;23.00;;;8.30;99.90;;;;;;5070456;28;20131;-68
2021/04/30 05:18:25;;;;;;;31.77;21.60;;;8.30;99.90;;;;;;5068451;28;20066;-69
2021/04/30 05:20:52;;;;;;;39.85;24.17;;;8.30;99.90;;;;;;5060829;28;20041;-69
2021/04/30 05:23:18;;;;;;;39.88;24.25;;;8.40;99.90;;;;;;5066307;28;20070;-69
2021/04/30 05:25:43;;;;;;;34.70;23.02;;;8.30;99.90;;;;;;5068068;28;20024;-69
2021/04/30 05:28:09;;;;;;;39.50;24.52;;;8.30;99.90;;;;;;5070042;28;20028;-68
2021/04/30 05:30:35;;;;;;;39.17;25.05;;;8.30;99.90;;;;;;5065128;28;20103;-69
2021/04/30 05:33:01;;;;;;;35.17;23.02;;;8.40;99.90;;;;;;5073004;28;20021;-70
2021/04/30 05:35:27;;;;;;;33.65;23.17;;;8.40;99.90;;;;;;5069702;28;20382;-68
2021/04/30 05:37:53;;;;;;;40.45;23.48;;;8.50;99.90;;;;;;5068647;28;20476;-69
2021/04/30 05:40:19;;;;;;;37.75;24.13;;;8.40;99.90;;;;;;5059932;28;20029;-69
2021/04/30 05:42:45;;;;;;;36.05;24.95;;;8.40;99.90;;;;;;5069927;28;20108;-69
2021/04/30 05:45:11;;;;;;;38.88;25.17;;;8.30;99.90;;;;;;5062576;28;20033;-69
2021/04/30 05:47:37;;;;;;;37.70;24.92;;;8.40;99.90;;;;;;5064740;28;20478;-69
2021/04/30 05:50:04;;;;;;;37.05;24.10;;;8.40;99.90;;;;;;5072407;28;20115;-68
2021/04/30 05:52:30;;;;;;;34.53;25.27;;;8.50;99.90;;;;;;5069673;28;20124;-68
2021/04/30 05:54:56;;;;;;;35.33;25.20;;;8.60;99.90;;;;;;5057483;28;20115;-69
2021/04/30 05:57:21;;;;;;;35.10;23.85;;;8.60;99.90;;;;;;5047606;28;21014;-68
2021/04/30 05:59:47;;;;;;;31.73;22.90;;;8.60;99.90;;;;;;5062658;28;20025;-69
2021/04/30 06:02:12;;;;;;;35.67;24.25;;;8.60;99.90;;;;;;5060354;28;20104;-69
2021/04/30 06:04:38;;;;;;;36.90;26.33;;;8.50;99.90;;;;;;5063562;28;20428;-68
2021/04/30 06:07:04;;;;;;;40.58;25.58;;;8.40;99.90;;;;;;5069561;28;20142;-69
2021/04/30 06:09:29;;;;;;;37.75;23.83;;;8.40;99.90;;;;;;5060800;28;20017;-68
2021/04/30 06:11:55;;;;;;;44.95;23.70;;;8.40;99.90;;;;;;5061721;28;20024;-69
2021/04/30 06:14:25;;;;;;;34.30;23.17;;;8.50;99.90;;;;;;5058755;28;20035;-69
2021/04/30 06:16:51;;;;;;;34.05;23.55;;;8.60;99.90;;;;;;5062515;28;20063;-69
2021/04/30 06:19:17;;;;;;;34.95;25.27;;;8.60;99.90;;;;;;5057851;28;20068;-69
2021/04/30 06:21:42;;;;;;;37.22;24.98;;;8.70;99.90;;;;;;5067908;28;20119;-69
2021/04/30 06:24:09;;;;;;;33.28;22.25;;;8.80;99.90;;;;;;5058279;28;20028;-69
2021/04/30 06:26:34;;;;;;;36.97;24.10;;;8.80;99.90;;;;;;5070870;28;20036;-69
2021/04/30 06:29:00;;;;;;;39.95;23.60;;;8.80;99.90;;;;;;5069778;28;20029;-70
2021/04/30 06:31:26;;;;;;;38.22;25.30;;;8.80;99.90;;;;;;5064180;28;20504;-70
2021/04/30 06:33:51;;;;;;;39.72;26.20;;;8.80;99.90;;;;;;5061267;28;20032;-70
2021/04/30 06:36:17;;;;;;;35.20;23.83;;;8.80;99.90;;;;;;5067627;28;20020;-68
2021/04/30 06:38:43;;;;;;;41.20;26.35;;;8.80;99.90;;;;;;5070851;28;20026;-70
2021/04/30 06:41:09;;;;;;;37.95;22.08;;;8.90;99.90;;;;;;5066641;28;20546;-69
2021/04/30 06:43:35;;;;;;;41.38;25.95;;;8.90;99.90;;;;;;5061127;28;20103;-69
2021/04/30 06:46:01;;;;;;;33.13;20.55;;;9.00;99.90;;;;;;5066914;28;20163;-69
2021/04/30 06:48:26;;;;;;;38.60;22.65;;;9.00;99.90;;;;;;5068085;28;20062;-70
2021/04/30 06:50:52;;;;;;;37.17;23.25;;;9.00;99.90;;;;;;5060805;28;20025;-69
2021/04/30 06:53:18;;;;;;;36.65;24.05;;;9.10;99.90;;;;;;5062429;28;20473;-69
2021/04/30 06:55:43;;;;;;;36.83;22.33;;;9.10;99.90;;;;;;5069858;28;20424;-69
2021/04/30 06:58:09;;;;;;;39.80;22.42;;;9.10;99.90;;;;;;5062332;28;20104;-70
2021/04/30 07:00:34;;;;;;;34.20;21.33;;;9.10;99.90;;;;;;5063161;28;20163;-70
2021/04/30 07:03:00;;;;;;;30.42;22.98;;;9.10;99.90;;;;;;5066850;28;20025;-70
2021/04/30 07:05:26;;;;;;;37.55;21.52;;;9.00;99.90;;;;;;5062824;28;20470;-69
2021/04/30 07:07:56;;;;;;;35.70;22.45;;;9.10;99.90;;;;;;5066233;28;20040;-69
2021/04/30 07:10:23;;;;;;;30.95;21.55;;;9.20;99.90;;;;;;5066739;28;20359;-70
2021/04/30 07:12:49;;;;;;;34.75;22.13;;;9.30;99.90;;;;;;5067498;28;20472;-69
2021/04/30 07:15:15;;;;;;;34.13;23.33;;;9.30;99.90;;;;;;5057428;28;20020;-69
2021/04/30 07:17:41;;;;;;;39.67;20.90;;;9.40;99.90;;;;;;5067584;28;20020;-69
2021/04/30 07:20:09;;;;;;;37.50;22.58;;;9.40;99.90;;;;;;5064616;28;20110;-69
2021/04/30 07:22:34;;;;;;;35.15;21.23;;;9.40;99.90;;;;;;5062363;28;20032;-70
2021/04/30 07:25:00;;;;;;;41.78;21.05;;;9.30;99.90;;;;;;5067539;28;20078;-69
2021/04/30 07:27:25;;;;;;;34.00;20.50;;;9.40;99.90;;;;;;5067601;28;20119;-70
2021/04/30 07:29:51;;;;;;;35.28;20.33;;;9.30;99.90;;;;;;5066280;28;20021;-69
2021/04/30 07:32:16;;;;;;;37.33;22.27;;;9.30;99.90;;;;;;5061650;28;20595;-69
2021/04/30 07:34:42;;;;;;;45.80;21.50;;;9.40;99.90;;;;;;5068032;28;20024;-69
2021/04/30 07:37:08;;;;;;;43.08;22.35;;;9.40;99.90;;;;;;5040350;28;20446;-69
2021/04/30 07:39:35;;;;;;;36.42;21.45;;;9.50;99.90;;;;;;5071329;28;20073;-70
2021/04/30 07:42:01;;;;;;;26.33;18.85;;;9.50;99.90;;;;;;5067513;28;20115;-69
2021/04/30 07:44:26;;;;;;;40.15;19.27;;;9.60;99.90;;;;;;5072125;28;20028;-69
2021/04/30 07:46:52;;;;;;;36.28;20.25;;;9.60;99.90;;;;;;5072068;28;20093;-69
2021/04/30 07:49:18;;;;;;;45.42;21.70;;;9.60;99.90;;;;;;5063048;28;20012;-69
2021/04/30 07:51:43;;;;;;;32.35;23.23;;;9.70;99.90;;;;;;5067400;28;20044;-69
2021/04/30 07:54:11;;;;;;;37.35;21.65;;;9.70;99.90;;;;;;5070200;28;20100;-70
2021/04/30 07:56:36;;;;;;;42.58;20.17;;;9.80;99.90;;;;;;5067096;28;20428;-69
2021/04/30 07:59:02;;;;;;;39.10;22.48;;;9.80;99.90;;;;;;5064175;28;20028;-69
2021/04/30 08:01:28;;;;;;;35.78;21.98;;;9.80;99.90;;;;;;5065890;28;20040;-70
2021/04/30 08:03:54;;;;;;;39.35;21.92;;;9.80;99.90;;;;;;5067283;28;20477;-69
2021/04/30 08:06:20;;;;;;;33.47;21.80;;;9.90;99.90;;;;;;5062251;28;20038;-69
2021/04/30 08:08:45;;;;;;;34.83;21.00;;;9.90;99.90;;;;;;5068603;28;20093;-69
2021/04/30 08:11:11;;;;;;;32.85;20.88;;;9.90;99.90;;;;;;5067063;28;20062;-69
2021/04/30 08:13:36;;;;;;;41.90;19.80;;;10.00;99.90;;;;;;5065206;28;20056;-69
2021/04/30 08:16:03;;;;;;;40.75;21.25;;;10.00;99.90;;;;;;5062386;28;20047;-69
2021/04/30 08:18:30;;;;;;;33.17;19.45;;;10.10;99.90;;;;;;5075828;28;20012;-69
2021/04/30 08:20:56;;;;;;;40.28;21.13;;;10.00;99.90;;;;;;5068075;28;20036;-70
2021/04/30 08:23:21;;;;;;;31.90;20.92;;;10.00;99.90;;;;;;5067120;28;20028;-70
2021/04/30 08:25:48;;;;;;;35.60;19.60;;;10.00;99.90;;;;;;5061734;28;20037;-71
2021/04/30 08:28:14;;;;;;;36.45;20.05;;;10.00;99.90;;;;;;5069599;28;20021;-71
2021/04/30 08:30:39;;;;;;;36.70;21.10;;;10.00;99.90;;;;;;5068396;28;20102;-71
2021/04/30 08:33:06;;;;;;;43.72;22.55;;;10.00;99.90;;;;;;5067803;28;20042;-71
2021/04/30 08:35:31;;;;;;;35.30;21.00;;;10.00;99.90;;;;;;5060363;28;20090;-70
2021/04/30 08:37:59;;;;;;;33.13;19.75;;;10.00;99.90;;;;;;5064109;28;20028;-72
2021/04/30 08:40:24;;;;;;;30.83;21.92;;;10.10;99.90;;;;;;5077010;28;20063;-70
2021/04/30 08:42:51;;;;;;;38.75;21.35;;;10.20;99.90;;;;;;5077014;28;20059;-70
2021/04/30 08:45:17;;;;;;;36.55;22.52;;;10.20;99.90;;;;;;5068343;28;20029;-69
2021/04/30 08:47:44;;;;;;;38.85;22.73;;;10.30;99.90;;;;;;5072133;28;20055;-70
2021/04/30 08:50:12;;;;;;;33.28;19.25;;;10.30;99.90;;;;;;5069953;28;20128;-71
2021/04/30 08:52:38;;;;;;;32.38;18.88;;;10.40;99.90;;;;;;5074249;28;20107;-71
2021/04/30 08:55:09;;;;;;;29.13;18.73;;;10.40;99.90;;;;;;5073703;28;20075;-73
2021/04/30 08:57:36;;;;;;;30.83;19.63;;;10.40;99.90;;;;;;5061845;28;20017;-71
2021/04/30 09:00:05;;;;;;;31.75;20.35;;;10.30;99.90;;;;;;5070424;28;20114;-69
2021/04/30 09:02:33;;;;;;;27.33;17.27;;;10.40;99.90;;;;;;5069471;28;20028;-69
2021/04/30 09:04:59;;;;;;;31.50;18.88;;;10.60;99.90;;;;;;5063070;28;20024;-69
2021/04/30 09:07:25;;;;;;;35.40;20.60;;;10.50;99.90;;;;;;5066753;28;20489;-69
2021/04/30 09:10:04;;;;;;;31.70;17.80;;;10.50;99.90;;;;;;5063715;28;20036;-69
2021/04/30 09:12:30;;;;;;;26.63;19.50;;;10.50;99.90;;;;;;5065619;28;20432;-69
2021/04/30 09:14:57;;;;;;;33.22;18.70;;;10.60;99.90;;;;;;5063404;28;20070;-69
2021/04/30 09:17:24;;;;;;;36.30;17.98;;;10.70;99.90;;;;;;5062622;28;20036;-68
2021/04/30 09:19:52;;;;;;;31.23;19.33;;;10.80;99.90;;;;;;5065755;28;20032;-69
2021/04/30 09:22:21;;;;;;;32.55;21.85;;;10.70;99.90;;;;;;5071736;28;20032;-69
2021/04/30 09:24:53;;;;;;;35.58;21.08;;;10.70;99.90;;;;;;5061272;28;20867;-69
2021/04/30 09:27:32;;;;;;;35.75;20.77;;;10.80;99.90;;;;;;5055404;28;20281;-69
2021/04/30 09:30:18;;;;;;;35.80;19.88;;;10.90;99.90;;;;;;5068528;28;20522;-68
2021/04/30 09:33:06;;;;;;;30.13;19.52;;;10.90;99.90;;;;;;5067456;28;20059;-69
2021/04/30 09:35:54;;;;;;;35.63;20.25;;;11.00;99.90;;;;;;5064768;28;20025;-69
2021/04/30 09:38:21;;;;;;;39.45;20.50;;;11.10;99.90;;;;;;5051136;28;20427;-69
2021/04/30 09:40:48;;;;;;;30.35;18.08;;;11.00;99.90;;;;;;5071230;28;20063;-69
2021/04/30 09:43:15;;;;;;;33.63;20.55;;;11.20;99.90;;;;;;5069557;28;20469;-70
2021/04/30 09:45:44;;;;;;;30.65;20.02;;;11.20;99.90;;;;;;5071350;28;20489;-69
2021/04/30 09:48:12;;;;;;;33.78;20.15;;;11.40;99.90;;;;;;5065655;28;20036;-69
2021/04/30 09:50:39;;;;;;;33.47;19.13;;;11.50;99.90;;;;;;5067065;28;20021;-69
2021/04/30 09:53:08;;;;;;;36.05;19.35;;;11.60;99.90;;;;;;5064289;28;20028;-70
2021/04/30 09:55:51;;;;;;;40.60;20.55;;;11.70;99.90;;;;;;5068613;28;20032;-69
2021/04/30 09:58:24;;;;;;;29.92;18.77;;;11.90;99.90;;;;;;5064840;28;20099;-69
2021/04/30 10:00:52;;;;;;;28.52;18.25;;;12.00;99.90;;;;;;5065534;28;20094;-69
2021/04/30 10:03:23;;;;;;;31.83;21.05;;;12.10;99.90;;;;;;5064501;28;20048;-69
2021/04/30 10:06:10;;;;;;;34.03;20.40;;;12.20;99.90;;;;;;5065536;28;20029;-69
2021/04/30 10:08:35;;;;;;;34.63;20.00;;;12.30;99.90;;;;;;5050162;28;20083;-71
2021/04/30 10:11:02;;;;;;;31.55;20.88;;;12.40;99.90;;;;;;5070118;28;20086;-74
2021/04/30 10:13:30;;;;;;;30.95;19.48;;;12.40;99.90;;;;;;5064826;28;20029;-70
2021/04/30 10:15:55;;;;;;;29.83;18.45;;;12.50;99.90;;;;;;5066950;28;20100;-70
2021/04/30 10:18:21;;;;;;;33.97;18.10;;;12.60;99.90;;;;;;5070328;28;20572;-71
2021/04/30 10:20:48;;;;;;;30.35;18.05;;;12.60;99.90;;;;;;5063640;28;20024;-70
2021/04/30 10:23:22;;;;;;;27.90;18.25;;;12.80;99.90;;;;;;5072635;28;20104;-71
2021/04/30 10:25:50;;;;;;;24.45;17.08;;;12.90;99.90;;;;;;5059561;28;20462;-71
2021/04/30 10:28:29;;;;;;;24.25;17.90;;;13.20;99.90;;;;;;5066656;28;20023;-70
2021/04/30 10:31:10;;;;;;;28.13;18.08;;;13.40;99.90;;;;;;5070284;28;20033;-70
2021/04/30 10:33:45;;;;;;;29.92;17.50;;;13.30;99.90;;;;;;5060003;28;20033;-70
2021/04/30 10:36:22;;;;;;;23.65;17.60;;;13.40;99.90;;;;;;5060979;28;20028;-71
2021/04/30 10:38:50;;;;;;;29.33;19.73;;;13.70;99.90;;;;;;5063368;28;20532;-70
2021/04/30 10:41:28;;;;;;;29.20;17.05;;;14.00;99.90;;;;;;5066869;28;20025;-71
2021/04/30 10:44:13;;;;;;;26.70;18.15;;;14.20;99.90;;;;;;5065325;28;20029;-71
2021/04/30 10:46:40;;;;;;;28.13;19.05;;;14.20;99.90;;;;;;5069760;28;20016;-71
2021/04/30 10:49:06;;;;;;;28.25;18.00;;;14.30;99.90;;;;;;5069698;28;20550;-71
2021/04/30 10:51:33;;;;;;;27.90;18.33;;;14.20;99.90;;;;;;5067501;28;20029;-71
2021/04/30 10:54:25;;;;;;;26.67;16.83;;;14.20;99.90;;;;;;5064557;28;20029;-71
2021/04/30 10:57:05;;;;;;;28.83;17.88;;;14.00;99.90;;;;;;5067330;28;20024;-71
2021/04/30 10:59:37;;;;;;;28.52;17.48;;;14.10;99.90;;;;;;5078277;28;20070;-72
2021/04/30 11:02:30;;;;;;;23.83;16.63;;;14.50;99.90;;;;;;5068794;28;20109;-72
2021/04/30 11:05:11;;;;;;;;;;;14.70;99.90;;;;;;5071076;28;20025;-72
2021/04/30 11:07:51;;;;;;;24.92;17.55;;;14.50;99.90;;;;;;5069503;28;19965;-73
2021/04/30 11:10:23;;;;;;;25.55;16.95;;;14.50;99.90;;;;;;5065749;28;20048;-72
2021/04/30 11:13:16;;;;;;;24.33;16.93;;;14.40;99.90;;;;;;5076374;28;20033;-71
2021/04/30 11:15:45;;;;;;;23.30;16.27;;;14.70;99.90;;;;;;5046321;28;20294;-73
2021/04/30 11:18:12;;;;;;;22.98;15.77;;;15.00;99.90;;;;;;5062690;28;20039;-71
2021/04/30 11:20:41;;;;;;;25.38;15.85;;;15.40;99.80;;;;;;5062561;28;20025;-72
2021/04/30 11:23:21;;;;;;;23.77;15.30;;;15.20;99.30;;;;;;5051227;28;20527;-71
2021/04/30 11:26:00;;;;;;;27.52;16.33;;;15.00;99.90;;;;;;5060900;28;20028;-71
2021/04/30 11:28:45;;;;;;;25.27;17.15;;;14.90;99.50;;;;;;5064792;28;20035;-71
2021/04/30 11:31:24;;;;;;;24.55;17.38;;;14.80;99.90;;;;;;5058662;28;20083;-71
2021/04/30 11:34:19;;;;;;;25.55;17.67;;;14.70;99.70;;;;;;5050681;28;20036;-71
2021/04/30 11:36:56;;;;;;;25.50;19.33;;;14.50;99.30;;;;;;5064331;28;20028;-71
2021/04/30 11:39:28;;;;;;;24.73;18.17;;;14.40;99.90;;;;;;5031038;28;20077;-71
2021/04/30 11:42:05;;;;;;;31.08;18.05;;;14.80;99.90;;;;;;5066404;28;20178;-71
2021/04/30 11:44:32;;;;;;;28.42;17.45;;;15.20;99.90;;;;;;5060140;28;20017;-72
2021/04/30 11:47:04;;;;;;;29.35;19.35;;;15.60;98.50;;;;;;5068769;28;20138;-72
2021/04/30 11:49:32;;;;;;;26.75;18.67;;;15.20;98.20;;;;;;5063325;28;20516;-72
2021/04/30 11:51:57;;;;;;;23.60;16.75;;;15.30;99.90;;;;;;5064024;28;20486;-71
2021/04/30 11:54:33;;;;;;;26.83;16.85;;;15.60;98.60;;;;;;5062788;28;20028;-72
2021/04/30 11:57:07;;;;;;;29.13;16.30;;;16.00;97.10;;;;;;5058698;28;20484;-71
2021/04/30 11:59:33;;;;;;;20.75;15.55;;;16.10;97.90;;;;;;5064352;28;20040;-71
2021/04/30 12:02:10;;;;;;;26.20;17.98;;;16.30;98.40;;;;;;5057404;28;20120;-71
2021/04/30 12:04:41;;;;;;;24.08;17.58;;;16.00;97.00;;;;;;5047988;28;20027;-72
2021/04/30 12:07:09;;;;;;;20.83;15.80;;;15.80;96.70;;;;;;5059726;28;20036;-73
2021/04/30 12:09:34;;;;;;;23.67;16.40;;;15.70;98.50;;;;;;5063647;28;20028;-72
2021/04/30 12:12:15;;;;;;;22.77;17.23;;;15.80;97.40;;;;;;5058567;28;20405;-72
2021/04/30 12:14:47;;;;;;;21.55;15.50;;;15.80;97.00;;;;;;5060273;28;20025;-71
2021/04/30 12:17:20;;;;;;;20.83;15.98;;;15.40;96.60;;;;;;5059071;28;20024;-71
2021/04/30 12:20:08;;;;;;;25.48;17.55;;;15.40;97.10;;;;;;5066442;28;20090;-71
2021/04/30 12:22:34;;;;;;;27.10;18.05;;;15.40;97.80;;;;;;5062440;28;20042;-71
2021/04/30 12:25:39;;;;;;;24.60;18.08;;;15.40;97.30;;;;;;5061652;28;20476;-71
2021/04/30 12:28:20;;;;;;;22.40;17.35;;;15.30;96.70;;;;;;4999031;28;20519;-71
2021/04/30 12:30:59;;;;;;;20.33;15.45;;;15.40;96.70;;;;;;5005181;28;20593;-71
2021/04/30 12:33:24;;;;;;;24.90;17.30;;;15.50;96.70;;;;;;5044111;28;20082;-71
2021/04/30 12:35:50;;;;;;;25.60;18.13;;;15.50;97.10;;;;;;5055615;28;21497;-71
2021/04/30 12:38:16;;;;;;;24.65;16.85;;;15.40;97.90;;;;;;5069903;28;20108;-71
2021/04/30 12:40:42;;;;;;;24.83;17.35;;;15.30;97.50;;;;;;5074661;28;20035;-71